createdAt,value
2023-04-12T00:00:11.057Z,7.50
2023-04-12T00:03:03.205Z,6.30
2023-04-12T00:05:31.469Z,3.90
2023-04-12T00:08:02.379Z,5.10
2023-04-12T00:10:34.903Z,6.90
2023-04-12T00:13:03.271Z,7.40
2023-04-12T00:15:31.509Z,6.70
2023-04-12T00:18:00.717Z,5.30
2023-04-12T00:20:28.886Z,4.40
2023-04-12T00:22:57.799Z,6.40
2023-04-12T00:25:26.458Z,4.20
2023-04-12T00:27:54.618Z,4.50
2023-04-12T00:30:23.686Z,6.80
2023-04-12T00:32:51.882Z,5.00
2023-04-12T00:35:20.042Z,3.90
2023-04-12T00:37:48.429Z,6.80
2023-04-12T00:40:16.798Z,5.40
2023-04-12T00:42:44.910Z,4.10
2023-04-12T00:45:14.670Z,5.70
2023-04-12T00:47:44.409Z,4.00
2023-04-12T00:50:12.716Z,6.00
2023-04-12T00:52:41.676Z,5.30
2023-04-12T00:55:10.403Z,5.50
2023-04-12T00:57:40.495Z,3.70
2023-04-12T01:00:13.820Z,4.40
2023-04-12T01:02:53.549Z,6.80
2023-04-12T01:05:24.229Z,6.00
2023-04-12T01:08:19.392Z,5.70
2023-04-12T01:11:06.347Z,6.80
2023-04-12T01:14:05.812Z,5.90
2023-04-12T01:16:47.966Z,6.50
2023-04-12T01:19:37.236Z,6.80
2023-04-12T01:22:36.236Z,7.30
2023-04-12T01:25:16.876Z,4.40
2023-04-12T01:27:50.148Z,5.80
2023-04-12T01:30:21.347Z,3.80
2023-04-12T01:32:51.659Z,3.70
2023-04-12T01:35:21.693Z,6.70
2023-04-12T01:37:49.887Z,6.70
2023-04-12T01:40:19.655Z,5.70
2023-04-12T01:42:47.878Z,4.60
2023-04-12T01:45:16.452Z,3.90
2023-04-12T01:47:44.817Z,4.60
2023-04-12T01:50:22.747Z,3.80
2023-04-12T01:53:31.530Z,6.20
2023-04-12T01:56:08.802Z,6.20
2023-04-12T01:58:39.979Z,5.80
2023-04-12T02:01:09.565Z,5.10
2023-04-12T02:03:42.711Z,5.90
2023-04-12T02:06:12.716Z,6.60
2023-04-12T02:08:42.632Z,4.20
2023-04-12T02:11:12.190Z,6.00
2023-04-12T02:13:40.720Z,5.80
2023-04-12T02:16:11.025Z,5.20
2023-04-12T02:18:41.579Z,4.80
2023-04-12T02:21:10.607Z,7.00
2023-04-12T02:23:38.825Z,4.00
2023-04-12T02:26:07.931Z,3.00
2023-04-12T02:28:37.382Z,6.10
2023-04-12T02:31:09.750Z,5.90
2023-04-12T02:33:42.621Z,4.60
2023-04-12T02:36:11.693Z,5.80
2023-04-12T02:38:40.871Z,5.80
2023-04-12T02:41:09.122Z,4.50
2023-04-12T02:43:39.518Z,5.90
2023-04-12T02:46:18.097Z,3.70
2023-04-12T02:48:48.900Z,5.30
2023-04-12T02:51:17.312Z,5.60
2023-04-12T02:53:45.958Z,4.90
2023-04-12T02:56:19.370Z,3.50
2023-04-12T02:58:50.519Z,6.20
2023-04-12T03:01:28.715Z,6.00
2023-04-12T03:04:17.511Z,4.90
2023-04-12T03:06:54.933Z,3.70
2023-04-12T03:09:28.660Z,3.10
2023-04-12T03:11:56.986Z,4.80
2023-04-12T03:14:25.290Z,3.20
2023-04-12T03:16:53.794Z,4.20
2023-04-12T03:19:22.099Z,4.50
2023-04-12T03:21:54.401Z,3.50
2023-04-12T03:24:23.928Z,3.10
2023-04-12T03:26:52.797Z,5.80
2023-04-12T03:29:25.706Z,4.80
2023-04-12T03:31:59.744Z,4.00
2023-04-12T03:34:34.762Z,4.20
2023-04-12T03:37:09.012Z,6.00
2023-04-12T03:39:44.969Z,6.30
2023-04-12T03:42:29.394Z,4.70
2023-04-12T03:45:01.929Z,3.90
2023-04-12T03:47:30.753Z,5.10
2023-04-12T03:50:11.549Z,5.30
2023-04-12T03:52:43.772Z,5.60
2023-04-12T03:55:14.079Z,4.70
2023-04-12T03:57:42.618Z,4.90
2023-04-12T04:00:12.587Z,3.80
2023-04-12T04:02:47.460Z,5.50
2023-04-12T04:05:16.811Z,5.20
2023-04-12T04:07:45.916Z,3.40
2023-04-12T04:10:16.126Z,5.70
2023-04-12T04:12:44.701Z,4.50
2023-04-12T04:15:15.216Z,5.80
2023-04-12T04:17:43.511Z,5.00
2023-04-12T04:20:13.768Z,4.70
2023-04-12T04:22:43.350Z,5.50
2023-04-12T04:25:21.434Z,6.00
2023-04-12T04:27:52.782Z,5.10
2023-04-12T04:30:23.240Z,5.90
2023-04-12T04:32:51.724Z,4.50
2023-04-12T04:35:21.950Z,3.10
2023-04-12T04:38:04.821Z,4.60
2023-04-12T04:40:33.177Z,3.90
2023-04-12T04:43:02.984Z,5.60
2023-04-12T04:45:34.957Z,4.40
2023-04-12T04:48:03.890Z,6.30
2023-04-12T04:50:32.199Z,5.30
2023-04-12T04:53:00.396Z,4.40
2023-04-12T04:55:30.387Z,5.80
2023-04-12T04:57:59.045Z,5.10
2023-04-12T05:00:27.945Z,3.50
2023-04-12T05:02:58.060Z,5.80
2023-04-12T05:05:29.491Z,6.80
2023-04-12T05:08:05.729Z,6.20
2023-04-12T05:10:34.799Z,5.70
2023-04-12T05:13:03.912Z,5.10
2023-04-12T05:15:32.226Z,3.80
2023-04-12T05:18:01.237Z,5.10
2023-04-12T05:20:29.526Z,3.10
2023-04-12T05:22:57.765Z,2.80
2023-04-12T05:25:26.323Z,2.60
2023-04-12T05:28:01.302Z,4.70
2023-04-12T05:30:30.035Z,5.60
2023-04-12T05:32:58.740Z,4.50
2023-04-12T05:35:27.494Z,3.20
2023-04-12T05:37:59.449Z,4.10
2023-04-12T05:40:27.520Z,4.90
2023-04-12T05:42:56.494Z,4.60
2023-04-12T05:45:25.120Z,4.10
2023-04-12T05:47:55.778Z,4.20
2023-04-12T05:50:24.226Z,3.90
2023-04-12T05:52:53.587Z,2.90
2023-04-12T05:55:25.084Z,3.60
2023-04-12T05:57:53.359Z,4.00
2023-04-12T06:00:21.841Z,2.60
2023-04-12T06:02:50.758Z,2.60
2023-04-12T06:05:19.662Z,2.10
2023-04-12T06:07:49.047Z,4.00
2023-04-12T06:10:18.111Z,3.60
2023-04-12T06:15:21.140Z,2.50
2023-04-12T06:17:54.467Z,2.10
2023-04-12T06:20:23.150Z,2.00
2023-04-12T06:22:51.341Z,2.00
2023-04-12T06:25:19.506Z,1.90
2023-04-12T06:27:49.092Z,1.90
2023-04-12T06:30:19.958Z,1.90
2023-04-12T06:32:50.227Z,1.60
2023-04-12T06:35:20.364Z,1.60
2023-04-12T06:37:50.011Z,2.10
2023-04-12T06:40:18.305Z,1.50
2023-04-12T06:42:46.531Z,1.40
2023-04-12T06:45:17.292Z,1.60
2023-04-12T06:47:45.603Z,1.60
2023-04-12T06:50:13.739Z,2.00
2023-04-12T06:52:41.944Z,2.00
2023-04-12T06:55:10.605Z,2.40
2023-04-12T06:57:38.819Z,2.90
2023-04-12T07:00:08.475Z,2.00
2023-04-12T07:02:37.996Z,1.80
2023-04-12T07:05:06.815Z,1.90
2023-04-12T07:07:35.015Z,2.50
2023-04-12T07:10:04.559Z,2.70
2023-04-12T07:12:33.176Z,1.70
2023-04-12T07:15:01.307Z,2.30
2023-04-12T07:17:29.558Z,2.90
2023-04-12T07:19:57.726Z,2.70
2023-04-12T07:22:26.077Z,2.60
2023-04-12T07:24:54.299Z,2.60
2023-04-12T07:27:22.765Z,2.70
2023-04-12T07:29:54.678Z,2.20
2023-04-12T07:32:23.335Z,2.30
2023-04-12T07:34:53.242Z,3.10
2023-04-12T07:37:21.333Z,2.70
2023-04-12T07:39:50.261Z,2.60
2023-04-12T07:42:18.565Z,2.60
2023-04-12T07:44:46.800Z,3.00
2023-04-12T07:47:14.905Z,2.90
2023-04-12T07:49:42.972Z,2.10
2023-04-12T07:52:11.548Z,3.00
2023-04-12T07:54:40.088Z,2.60
2023-04-12T07:57:09.112Z,2.80
2023-04-12T07:59:37.232Z,2.40
2023-04-12T08:02:06.391Z,2.20
2023-04-12T08:04:34.600Z,2.50
2023-04-12T08:07:02.655Z,2.80
2023-04-12T08:09:30.906Z,2.40
2023-04-12T08:11:59.058Z,2.50
2023-04-12T08:14:27.383Z,2.40
2023-04-12T08:16:55.547Z,2.60
2023-04-12T08:19:23.894Z,2.00
2023-04-12T08:21:52.737Z,2.60
2023-04-12T08:24:20.909Z,2.40
2023-04-12T08:26:51.801Z,2.80
2023-04-12T08:29:19.921Z,2.70
2023-04-12T08:31:48.221Z,2.50
2023-04-12T08:34:16.939Z,3.20
2023-04-12T08:36:45.335Z,2.80
2023-04-12T08:39:13.427Z,3.50
2023-04-12T08:41:42.540Z,2.30
2023-04-12T08:44:12.135Z,2.60
2023-04-12T08:46:40.925Z,3.10
2023-04-12T08:49:11.511Z,2.50
2023-04-12T08:51:42.472Z,2.70
2023-04-12T08:54:10.638Z,3.30
2023-04-12T08:56:41.798Z,2.60
2023-04-12T08:59:11.255Z,2.80
2023-04-12T09:01:42.332Z,3.20
2023-04-12T09:04:10.838Z,3.30
2023-04-12T09:06:39.384Z,2.60
2023-04-12T09:09:08.314Z,2.70
2023-04-12T09:11:37.386Z,2.90
2023-04-12T09:14:22.178Z,3.70
2023-04-12T09:16:50.739Z,3.10
2023-04-12T09:19:35.341Z,2.80
2023-04-12T09:22:03.565Z,3.10
2023-04-12T09:24:46.688Z,2.30
2023-04-12T09:27:15.066Z,3.00
2023-04-12T09:29:45.693Z,2.80
2023-04-12T09:32:13.814Z,3.70
2023-04-12T09:34:56.717Z,3.40
2023-04-12T09:37:26.331Z,3.50
2023-04-12T09:40:04.481Z,3.60
2023-04-12T09:42:34.997Z,3.20
2023-04-12T09:45:25.563Z,3.30
2023-04-12T09:47:55.211Z,4.00
2023-04-12T09:50:28.797Z,3.60
2023-04-12T09:52:58.315Z,3.30
2023-04-12T09:55:28.919Z,3.40
2023-04-12T09:58:01.259Z,3.20
2023-04-12T10:00:31.800Z,3.10
2023-04-12T10:03:00.762Z,4.00
2023-04-12T10:05:29.545Z,3.40
2023-04-12T10:07:59.068Z,3.10
2023-04-12T10:10:30.979Z,3.60
2023-04-12T10:13:00.777Z,3.50
2023-04-12T10:15:29.665Z,3.10
2023-04-12T10:18:02.665Z,3.10
2023-04-12T10:20:31.160Z,3.60
2023-04-12T10:23:00.881Z,3.50
2023-04-12T10:25:31.849Z,3.90
2023-04-12T10:28:18.761Z,2.90
2023-04-12T10:30:53.379Z,3.00
2023-04-12T10:33:27.518Z,2.70
2023-04-12T10:36:02.910Z,2.70
2023-04-12T10:38:47.821Z,3.10
2023-04-12T10:41:20.721Z,3.20
2023-04-12T10:43:50.325Z,3.10
2023-04-12T10:46:40.630Z,2.70
2023-04-12T10:49:13.801Z,2.40
2023-04-12T10:52:03.932Z,3.00
2023-04-12T10:54:37.012Z,3.30
2023-04-12T10:57:07.290Z,3.20
2023-04-12T10:59:57.571Z,3.70
2023-04-12T11:02:26.037Z,2.60
2023-04-12T11:05:11.351Z,3.40
2023-04-12T11:08:00.955Z,3.10
2023-04-12T11:10:42.038Z,2.60
2023-04-12T11:13:17.072Z,3.40
2023-04-12T11:15:45.358Z,2.70
2023-04-12T11:18:13.802Z,2.80
2023-04-12T11:20:42.290Z,2.60
2023-04-12T11:23:11.789Z,3.90
2023-04-12T11:25:40.400Z,2.90
2023-04-12T11:28:21.182Z,2.80
2023-04-12T11:30:55.296Z,2.70
2023-04-12T11:33:37.206Z,2.50
2023-04-12T11:36:12.389Z,3.50
2023-04-12T11:38:41.319Z,2.60
2023-04-12T11:41:10.188Z,3.40
2023-04-12T11:43:38.965Z,3.00
2023-04-12T11:46:07.438Z,3.00
2023-04-12T11:48:38.775Z,3.30
2023-04-12T11:51:31.582Z,2.90
2023-04-12T11:54:00.761Z,3.10
2023-04-12T11:56:29.838Z,2.30
2023-04-12T11:58:58.127Z,3.00
2023-04-12T12:01:27.963Z,2.60
2023-04-12T12:03:57.493Z,2.70
2023-04-12T12:06:28.301Z,3.00
2023-04-12T12:08:57.867Z,3.10
2023-04-12T12:11:28.412Z,2.50
2023-04-12T12:13:57.160Z,2.60
2023-04-12T12:16:30.665Z,3.20
2023-04-12T12:18:59.006Z,2.60
2023-04-12T12:21:27.867Z,2.50
2023-04-12T12:23:57.332Z,2.40
2023-04-12T12:26:30.748Z,3.60
2023-04-12T12:29:00.663Z,3.20
2023-04-12T12:31:29.407Z,3.00
2023-04-12T12:33:59.670Z,2.50
2023-04-12T12:36:37.657Z,3.10
2023-04-12T12:39:11.161Z,2.60
2023-04-12T12:41:40.376Z,3.90
2023-04-12T12:44:08.958Z,2.70
2023-04-12T12:49:08.334Z,4.20
2023-04-12T12:51:36.702Z,3.00
2023-04-12T12:54:04.849Z,3.80
2023-04-12T12:56:33.150Z,4.50
2023-04-12T12:59:01.554Z,4.40
2023-04-12T13:01:29.738Z,3.10
2023-04-12T13:03:59.173Z,4.50
2023-04-12T13:06:28.519Z,4.00
2023-04-12T13:08:56.881Z,5.00
2023-04-12T13:11:25.257Z,4.70
2023-04-12T13:13:53.421Z,4.50
2023-04-12T13:16:22.926Z,4.10
2023-04-12T13:18:52.981Z,5.10
2023-04-12T13:21:21.119Z,4.90
2023-04-12T13:23:49.286Z,4.90
2023-04-12T13:26:17.678Z,4.00
2023-04-12T13:28:45.839Z,4.40
2023-04-12T13:31:14.160Z,3.70
2023-04-12T13:33:42.317Z,4.70
2023-04-12T13:36:11.069Z,3.40
2023-04-12T13:38:39.243Z,3.50
2023-04-12T13:41:07.984Z,4.10
2023-04-12T13:43:36.247Z,4.70
2023-04-12T13:46:04.706Z,5.50
2023-04-12T13:48:33.310Z,4.00
2023-04-12T13:51:01.966Z,5.70
2023-04-12T13:53:31.240Z,5.30
2023-04-12T13:55:59.362Z,12.90
2023-04-12T13:58:27.428Z,11.00
2023-04-12T14:00:57.000Z,7.90
2023-04-12T14:03:25.226Z,3.80
2023-04-12T14:05:53.457Z,5.20
2023-04-12T14:08:21.694Z,4.70
2023-04-12T14:10:49.903Z,4.30
2023-04-12T14:13:17.999Z,4.50
2023-04-12T14:15:46.514Z,5.50
2023-04-12T14:18:14.737Z,6.30
2023-04-12T14:20:43.750Z,4.60
2023-04-12T14:23:11.796Z,5.30
2023-04-12T14:25:40.940Z,5.00
2023-04-12T14:28:09.095Z,4.70
2023-04-12T14:30:37.374Z,4.80
2023-04-12T14:33:05.797Z,5.00
2023-04-12T14:35:34.217Z,3.80
2023-04-12T14:38:02.862Z,4.80
2023-04-12T14:40:31.439Z,4.60
2023-04-12T14:42:59.762Z,3.20
2023-04-12T14:45:28.208Z,4.60
2023-04-12T14:47:56.729Z,3.20
2023-04-12T14:50:24.894Z,3.30
2023-04-12T14:52:54.546Z,4.60
2023-04-12T14:55:22.932Z,3.90
2023-04-12T14:57:51.279Z,4.10
2023-04-12T15:00:20.511Z,4.60
2023-04-12T15:02:49.959Z,4.20
2023-04-12T15:05:18.530Z,3.40
2023-04-12T15:07:48.065Z,3.70
2023-04-12T15:10:18.137Z,4.90
2023-04-12T15:12:46.601Z,4.70
2023-04-12T15:15:15.850Z,4.50
2023-04-12T15:17:45.320Z,4.90
2023-04-12T15:20:17.308Z,3.20
2023-04-12T15:22:45.418Z,4.20
2023-04-12T15:25:13.558Z,4.10
2023-04-12T15:27:41.912Z,3.50
2023-04-12T15:30:14.458Z,5.00
2023-04-12T15:35:25.348Z,5.40
2023-04-12T15:37:55.637Z,4.10
2023-04-12T15:40:24.533Z,5.80
2023-04-12T15:42:53.071Z,5.20
2023-04-12T15:45:21.706Z,4.50
2023-04-12T15:47:50.959Z,6.30
2023-04-12T15:50:19.292Z,4.20
2023-04-12T15:52:48.106Z,4.80
2023-04-12T15:55:21.981Z,2.90
2023-04-12T15:57:50.164Z,3.40
2023-04-12T16:00:25.045Z,3.00
2023-04-12T16:02:56.253Z,5.20
2023-04-12T16:05:26.790Z,5.40
2023-04-12T16:07:56.920Z,3.50
2023-04-12T16:10:25.330Z,3.70
2023-04-12T16:12:54.673Z,3.20
2023-04-12T16:15:27.738Z,6.00
2023-04-12T16:17:57.809Z,3.60
2023-04-12T16:20:27.733Z,3.50
2023-04-12T16:22:56.906Z,5.80
2023-04-12T16:25:30.013Z,4.90
2023-04-12T16:28:02.706Z,3.90
2023-04-12T16:30:33.026Z,4.00
2023-04-12T16:33:01.493Z,5.50
2023-04-12T16:35:29.925Z,4.90
2023-04-12T16:37:58.811Z,3.90
2023-04-12T16:40:28.767Z,5.60
2023-04-12T16:42:58.801Z,6.20
2023-04-12T16:45:28.603Z,6.00
2023-04-12T16:47:57.599Z,5.90
2023-04-12T16:50:27.982Z,6.60
2023-04-12T16:52:56.585Z,3.20
2023-04-12T16:55:27.247Z,5.90
2023-04-12T16:57:57.356Z,6.70
2023-04-12T17:00:29.740Z,6.20
2023-04-12T17:02:58.492Z,4.70
2023-04-12T17:05:28.018Z,4.90
2023-04-12T17:07:58.381Z,5.40
2023-04-12T17:10:26.798Z,7.00
2023-04-12T17:12:58.579Z,5.30
2023-04-12T17:15:28.526Z,8.10
2023-04-12T17:18:01.253Z,9.30
2023-04-12T17:20:29.900Z,5.00
2023-04-12T17:22:59.624Z,15.10
2023-04-12T17:25:31.137Z,6.90
2023-04-12T17:28:01.313Z,5.00
2023-04-12T17:30:29.977Z,7.70
2023-04-12T17:33:01.291Z,5.30
2023-04-12T17:35:29.861Z,8.60
2023-04-12T17:37:58.222Z,8.90
2023-04-12T17:40:27.223Z,5.50
2023-04-12T17:42:55.361Z,7.80
2023-04-12T17:45:24.109Z,6.50
2023-04-12T17:47:52.565Z,6.50
2023-04-12T17:50:21.105Z,5.20
2023-04-12T17:52:49.749Z,7.40
2023-04-12T17:55:24.147Z,7.40
2023-04-12T17:57:55.900Z,6.70
2023-04-12T18:00:24.556Z,6.00
2023-04-12T18:02:52.830Z,4.70
2023-04-12T18:05:21.745Z,5.20
2023-04-12T18:07:50.417Z,7.20
2023-04-12T18:10:21.627Z,4.90
2023-04-12T18:12:50.417Z,3.60
2023-04-12T18:15:19.287Z,7.30
2023-04-12T18:17:47.676Z,8.00
2023-04-12T18:20:17.420Z,5.90
2023-04-12T18:22:47.031Z,4.70
2023-04-12T18:25:16.880Z,7.90
2023-04-12T18:27:48.444Z,4.80
2023-04-12T18:30:21.398Z,6.50
2023-04-12T18:32:49.796Z,4.30
2023-04-12T18:35:18.938Z,6.40
2023-04-12T18:37:47.269Z,4.60
2023-04-12T18:40:18.723Z,5.80
2023-04-12T18:42:47.093Z,5.30
2023-04-12T18:45:16.179Z,8.30
2023-04-12T18:47:44.943Z,6.10
2023-04-12T18:50:14.718Z,4.10
2023-04-12T18:52:42.964Z,8.40
2023-04-12T18:55:11.921Z,8.10
2023-04-12T18:57:40.387Z,8.90
2023-04-12T19:00:14.529Z,8.70
2023-04-12T19:02:43.617Z,8.60
2023-04-12T19:05:14.846Z,9.30
2023-04-12T19:07:42.963Z,6.40
2023-04-12T19:10:12.593Z,5.50
2023-04-12T19:12:41.580Z,7.90
2023-04-12T19:15:11.317Z,5.60
2023-04-12T19:17:40.298Z,4.90
2023-04-12T19:20:10.817Z,4.70
2023-04-12T19:22:39.040Z,7.40
2023-04-12T19:25:11.662Z,7.70
2023-04-12T19:27:40.337Z,4.80
2023-04-12T19:30:11.604Z,7.40
2023-04-12T19:32:40.895Z,5.50
2023-04-12T19:35:12.661Z,4.30
2023-04-12T19:37:40.997Z,6.30
2023-04-12T19:40:12.586Z,4.80
2023-04-12T19:42:44.252Z,6.60
2023-04-12T19:45:12.699Z,5.20
2023-04-12T19:47:47.440Z,3.90
2023-04-12T19:50:17.033Z,3.30
2023-04-12T19:52:46.875Z,6.40
2023-04-12T19:55:16.175Z,6.60
2023-04-12T19:57:45.366Z,6.00
2023-04-12T20:00:19.765Z,4.70
2023-04-12T20:02:50.457Z,7.00
2023-04-12T20:05:20.965Z,6.80
2023-04-12T20:07:49.901Z,4.50
2023-04-12T20:10:18.371Z,4.40
2023-04-12T20:12:46.771Z,4.20
2023-04-12T20:15:14.813Z,3.60
2023-04-12T20:17:43.978Z,6.90
2023-04-12T20:20:14.165Z,5.50
2023-04-12T20:22:43.894Z,7.30
2023-04-12T20:25:13.523Z,5.90
2023-04-12T20:27:41.884Z,4.40
2023-04-12T20:30:11.479Z,4.10
2023-04-12T20:32:39.764Z,3.40
2023-04-12T20:35:09.081Z,4.90
2023-04-12T20:37:37.736Z,6.80
2023-04-12T20:40:09.716Z,6.00
2023-04-12T20:42:37.896Z,5.80
2023-04-12T20:45:07.264Z,6.20
2023-04-12T20:47:38.184Z,6.20
2023-04-12T20:50:07.711Z,6.60
2023-04-12T20:52:36.522Z,6.20
2023-04-12T20:55:05.703Z,5.10
2023-04-12T20:57:34.739Z,6.20
2023-04-12T21:00:12.525Z,6.90
2023-04-12T21:02:40.884Z,6.80
2023-04-12T21:05:09.779Z,4.90
2023-04-12T21:07:37.950Z,5.20
2023-04-12T21:10:07.024Z,4.70
2023-04-12T21:12:35.627Z,5.30
2023-04-12T21:15:06.100Z,6.60
2023-04-12T21:17:36.178Z,5.30
2023-04-12T21:20:14.178Z,6.60
2023-04-12T21:22:44.213Z,6.50
2023-04-12T21:25:16.564Z,6.00
2023-04-12T21:27:48.392Z,4.50
2023-04-12T21:30:16.565Z,6.60
2023-04-12T21:32:45.235Z,4.00
2023-04-12T21:35:14.103Z,4.50
2023-04-12T21:37:42.568Z,8.20
2023-04-12T21:40:12.598Z,7.00
2023-04-12T21:42:41.632Z,6.20
2023-04-12T21:45:10.148Z,5.20
2023-04-12T21:47:40.220Z,10.10
2023-04-12T21:50:10.369Z,9.80
2023-04-12T21:52:39.477Z,7.20
2023-04-12T21:55:07.947Z,7.70
2023-04-12T21:57:36.487Z,10.30
2023-04-12T22:00:06.383Z,6.10
2023-04-12T22:02:41.089Z,10.60
2023-04-12T22:05:09.579Z,8.40
2023-04-12T22:07:41.462Z,7.40
2023-04-12T22:10:12.037Z,5.80
2023-04-12T22:12:40.592Z,7.20
2023-04-12T22:15:11.726Z,9.70
2023-04-12T22:17:41.232Z,9.70
2023-04-12T22:20:10.466Z,7.30
2023-04-12T22:22:40.035Z,9.30
2023-04-12T22:25:12.295Z,6.90
2023-04-12T22:27:41.222Z,5.20
2023-04-12T22:30:11.720Z,5.50
2023-04-12T22:32:41.155Z,7.10
2023-04-12T22:35:10.363Z,4.60
2023-04-12T22:37:41.572Z,5.10
2023-04-12T22:40:12.453Z,8.80
2023-04-12T22:42:47.952Z,6.10
2023-04-12T22:45:17.396Z,6.80
2023-04-12T22:47:45.864Z,7.60
2023-04-12T22:50:14.317Z,7.90
2023-04-12T22:52:42.653Z,7.70
2023-04-12T22:55:14.680Z,5.60
2023-04-12T22:57:43.639Z,6.00
2023-04-12T23:00:16.968Z,7.20
2023-04-12T23:02:46.664Z,6.00
2023-04-12T23:05:16.357Z,6.60
2023-04-12T23:07:44.647Z,4.90
2023-04-12T23:10:12.973Z,5.20
2023-04-12T23:12:41.246Z,7.60
2023-04-12T23:15:09.860Z,7.70
2023-04-12T23:17:38.003Z,8.30
2023-04-12T23:20:13.102Z,8.20
2023-04-12T23:22:57.807Z,4.30
2023-04-12T23:25:39.338Z,8.70
2023-04-12T23:28:15.001Z,7.50
2023-04-12T23:30:49.173Z,6.60
2023-04-12T23:33:20.462Z,5.10
2023-04-12T23:35:52.914Z,5.30
2023-04-12T23:38:34.868Z,9.20
2023-04-12T23:41:04.437Z,7.20
2023-04-12T23:43:37.374Z,8.40
2023-04-12T23:46:05.913Z,8.00
2023-04-12T23:48:35.006Z,7.30
2023-04-12T23:51:03.208Z,8.60
2023-04-12T23:53:31.694Z,8.90
2023-04-12T23:55:59.809Z,6.80
2023-04-12T23:58:28.047Z,7.30
